Time,TemperatureF,DewpointF,PressureIn,WindDirection,WindDirectionDegrees,WindSpeedMPH,WindSpeedGustMPH,Humidity,HourlyPrecipIn,Conditions,Clouds,dailyrainin,SoftwareType,DateUTC
2013-03-19 00:00:00,51.3,50.7,27.82,NW,315,1.6,1.6,98,0.00,,---,0.00,VWS V14.01,2013-03-19 04:00:00,
2013-03-19 00:01:00,51.3,50.7,27.82,NE,45,0.0,1.6,98,0.00,,---,0.00,VWS V14.01,2013-03-19 04:01:00,
2013-03-19 00:02:00,51.3,50.7,27.82,SSW,202,0.0,1.6,98,0.00,,---,0.00,VWS V14.01,2013-03-19 04:02:00,
2013-03-19 00:07:00,51.3,50.7,27.82,ESE,112,2.0,2.0,98,0.00,,---,0.00,VWS V14.01,2013-03-19 04:07:00,
2013-03-19 00:12:00,51.3,50.7,27.82,NNE,22,0.9,1.3,98,0.00,,---,0.00,VWS V14.01,2013-03-19 04:12:00,
2013-03-19 00:17:00,51.3,50.7,27.82,NE,45,0.0,0.0,98,0.00,,---,0.00,VWS V14.01,2013-03-19 04:17:00,
2013-03-19 00:22:00,51.1,50.5,27.82,NE,45,0.0,0.9,98,0.00,,---,0.00,VWS V14.01,2013-03-19 04:22:00,
2013-03-19 00:27:00,51.1,50.5,27.82,WSW,248,0.0,0.0,98,0.00,,---,0.00,VWS V14.01,2013-03-19 04:27:00,
2013-03-19 00:32:00,51.1,50.5,27.82,NNE,22,0.0,0.0,98,0.00,,---,0.00,VWS V14.01,2013-03-19 04:32:00,
2013-03-19 00:37:00,50.7,50.2,27.82,ENE,68,0.0,1.1,98,0.00,,---,0.00,VWS V14.01,2013-03-19 04:37:00,
2013-03-19 00:42:00,50.4,49.5,27.82,NE,45,0.9,0.9,97,0.00,,---,0.00,VWS V14.01,2013-03-19 04:42:00,
2013-03-19 00:47:00,49.8,49.3,27.82,East,90,0.9,0.9,98,0.00,,---,0.00,VWS V14.01,2013-03-19 04:47:00,
2013-03-19 00:52:00,49.5,48.7,27.82,ENE,68,0.0,0.9,97,0.00,,---,0.00,VWS V14.01,2013-03-19 04:52:00,
2013-03-19 00:57:00,49.3,48.5,27.82,ENE,68,0.0,1.1,97,0.00,,---,0.00,VWS V14.01,2013-03-19 04:57:00,
2013-03-19 01:03:00,49.3,48.5,27.82,ENE,68,1.1,1.6,97,0.00,,---,0.00,VWS V14.01,2013-03-19 05:03:00,
2013-03-19 01:08:00,48.6,47.8,27.82,ENE,68,0.9,1.6,97,0.00,,---,0.00,VWS V14.01,2013-03-19 05:08:00,
2013-03-19 01:13:00,48.4,47.6,27.82,WSW,248,0.0,0.0,97,0.00,,---,0.00,VWS V14.01,2013-03-19 05:13:00,
2013-03-19 01:18:00,48.2,47.4,27.82,South,180,0.0,1.1,97,0.00,,---,0.00,VWS V14.01,2013-03-19 05:18:00,
2013-03-19 01:23:00,48.0,47.5,27.82,ENE,68,1.3,1.3,98,0.00,,---,0.00,VWS V14.01,2013-03-19 05:23:00,
2013-03-19 01:28:00,48.0,47.5,27.82,SW,225,1.3,1.3,98,0.00,,---,0.00,VWS V14.01,2013-03-19 05:28:00,
2013-03-19 01:33:00,47.7,47.1,27.82,East,90,0.0,1.3,98,0.00,,---,0.00,VWS V14.01,2013-03-19 05:33:00,
2013-03-19 01:38:00,47.7,47.1,27.82,NNE,22,2.9,2.9,98,0.00,,---,0.00,VWS V14.01,2013-03-19 05:38:00,
2013-03-19 01:43:00,47.3,46.5,27.82,East,90,1.3,3.1,97,0.00,,---,0.00,VWS V14.01,2013-03-19 05:43:00,
2013-03-19 01:48:00,47.1,46.3,27.82,SE,135,2.9,4.3,97,0.00,,---,0.00,VWS V14.01,2013-03-19 05:48:00,
2013-03-19 01:53:00,46.9,46.1,27.82,NE,45,2.5,2.9,97,0.00,,---,0.00,VWS V14.01,2013-03-19 05:53:00,
2013-03-19 01:58:00,46.8,45.7,27.82,SSE,158,1.1,2.7,96,0.00,,---,0.00,VWS V14.01,2013-03-19 05:58:00,
2013-03-19 02:03:00,46.6,45.5,27.82,NE,45,2.7,4.3,96,0.00,,---,0.00,VWS V14.01,2013-03-19 06:03:00,
2013-03-19 02:08:00,46.0,44.4,27.82,NNW,338,2.9,2.9,94,0.00,,---,0.00,VWS V14.01,2013-03-19 06:08:00,
2013-03-19 02:13:00,45.9,44.2,27.82,NE,45,1.3,4.0,94,0.00,,---,0.00,VWS V14.01,2013-03-19 06:13:00,
2013-03-19 02:18:00,45.3,43.4,27.82,NNE,22,3.8,3.8,93,0.00,,---,0.00,VWS V14.01,2013-03-19 06:18:00,
2013-03-19 02:23:00,44.8,42.6,27.82,SE,135,2.7,2.7,92,0.00,,---,0.00,VWS V14.01,2013-03-19 06:23:00,
2013-03-19 02:28:00,44.4,42.2,27.82,SSE,158,2.0,3.6,92,0.00,,---,0.00,VWS V14.01,2013-03-19 06:28:00,
2013-03-19 02:33:00,44.1,41.9,27.82,SSW,202,0.9,0.9,92,0.00,,---,0.00,VWS V14.01,2013-03-19 06:33:00,
2013-03-19 02:38:00,43.7,41.5,27.82,WNW,292,1.3,2.5,92,0.00,,---,0.00,VWS V14.01,2013-03-19 06:38:00,
2013-03-19 02:43:00,43.5,41.3,27.82,ENE,68,2.7,2.7,92,0.00,,---,0.00,VWS V14.01,2013-03-19 06:43:00,
2013-03-19 02:49:00,43.3,41.2,27.82,SSE,158,1.3,2.0,92,0.00,,---,0.00,VWS V14.01,2013-03-19 06:49:00,
2013-03-19 02:54:00,43.0,40.8,27.85,ESE,112,2.7,2.9,92,0.00,,---,0.00,VWS V14.01,2013-03-19 06:54:00,
2013-03-19 02:59:00,42.8,40.4,27.85,NNW,338,4.5,4.5,91,0.00,,---,0.00,VWS V14.01,2013-03-19 06:59:00,
2013-03-19 03:04:00,42.4,39.7,27.85,East,90,0.0,2.5,90,0.00,,---,0.00,VWS V14.01,2013-03-19 07:04:00,
2013-03-19 03:09:00,42.1,38.5,27.85,NE,45,3.1,3.1,87,0.00,,---,0.00,VWS V14.01,2013-03-19 07:09:00,
2013-03-19 03:14:00,41.9,38.3,27.85,SSW,202,2.2,2.7,87,0.00,,---,0.00,VWS V14.01,2013-03-19 07:14:00,
2013-03-19 03:19:00,41.7,38.1,27.85,SSE,158,3.8,3.8,87,0.00,,---,0.00,VWS V14.01,2013-03-19 07:19:00,
2013-03-19 03:24:00,41.5,38.3,27.88,South,180,2.5,2.9,88,0.00,,---,0.00,VWS V14.01,2013-03-19 07:24:00,
2013-03-19 03:29:00,41.4,38.1,27.88,East,90,2.9,2.9,88,0.00,,---,0.00,VWS V14.01,2013-03-19 07:29:00,
2013-03-19 03:34:00,41.4,37.8,27.88,East,90,3.1,3.1,87,0.00,,---,0.00,VWS V14.01,2013-03-19 07:34:00,
2013-03-19 03:39:00,41.2,37.6,27.85,ENE,68,2.2,5.6,87,0.00,,---,0.00,VWS V14.01,2013-03-19 07:39:00,
2013-03-19 03:44:00,41.2,37.6,27.85,WSW,248,1.3,1.3,87,0.00,,---,0.00,VWS V14.01,2013-03-19 07:44:00,
2013-03-19 03:49:00,41.0,37.4,27.85,East,90,0.9,0.9,87,0.00,,---,0.00,VWS V14.01,2013-03-19 07:49:00,
2013-03-19 03:54:00,40.6,37.1,27.85,SSE,158,2.7,2.7,87,0.00,,---,0.00,VWS V14.01,2013-03-19 07:54:00,
2013-03-19 03:59:00,40.5,36.9,27.85,SE,135,2.0,2.0,87,0.00,,---,0.00,VWS V14.01,2013-03-19 07:59:00,
2013-03-19 04:04:00,40.1,35.4,27.85,NE,45,1.6,3.6,83,0.00,,---,0.00,VWS V14.01,2013-03-19 08:04:00,
2013-03-19 04:10:00,39.7,34.4,27.88,West,270,0.0,0.0,81,0.00,,---,0.00,VWS V14.01,2013-03-19 08:10:00,
2013-03-19 04:15:00,39.4,33.7,27.88,East,90,1.6,5.6,80,0.00,,---,0.00,VWS V14.01,2013-03-19 08:15:00,
2013-03-19 04:20:00,39.2,33.6,27.88,NNE,22,2.5,2.5,80,0.00,,---,0.00,VWS V14.01,2013-03-19 08:20:00,
2013-03-19 04:25:00,39.0,33.1,27.88,ENE,68,2.9,2.9,79,0.00,,---,0.00,VWS V14.01,2013-03-19 08:25:00,
2013-03-19 04:30:00,38.7,32.4,27.88,NE,45,0.0,2.9,78,0.00,,---,0.00,VWS V14.01,2013-03-19 08:30:00,
2013-03-19 04:35:00,38.7,31.4,27.88,NNE,22,3.1,3.8,75,0.00,,---,0.00,VWS V14.01,2013-03-19 08:35:00,
2013-03-19 04:40:00,38.5,31.6,27.88,SE,135,0.0,3.1,76,0.00,,---,0.00,VWS V14.01,2013-03-19 08:40:00,
2013-03-19 04:45:00,38.3,31.4,27.88,East,90,1.1,1.6,76,0.00,,---,0.00,VWS V14.01,2013-03-19 08:45:00,
2013-03-19 04:50:00,38.1,31.2,27.88,SSW,202,2.0,2.0,76,0.00,,---,0.00,VWS V14.01,2013-03-19 08:50:00,
2013-03-19 04:55:00,37.9,31.1,27.88,ENE,68,1.3,1.3,76,0.00,,---,0.00,VWS V14.01,2013-03-19 08:55:00,
2013-03-19 05:01:00,37.9,30.7,27.88,North,0,1.1,2.5,75,0.00,,---,0.00,VWS V14.01,2013-03-19 09:01:00,
2013-03-19 05:06:00,37.8,30.6,27.88,SSE,158,2.0,2.0,75,0.00,,---,0.00,VWS V14.01,2013-03-19 09:06:00,
2013-03-19 05:11:00,37.8,30.6,27.90,South,180,2.7,3.1,75,0.00,,---,0.00,VWS V14.01,2013-03-19 09:11:00,
2013-03-19 05:16:00,37.6,30.4,27.90,NNE,22,0.9,0.9,75,0.00,,---,0.00,VWS V14.01,2013-03-19 09:16:00,
2013-03-19 05:21:00,37.6,30.4,27.90,SW,225,0.0,0.0,75,0.00,,---,0.00,VWS V14.01,2013-03-19 09:21:00,
2013-03-19 05:26:00,37.4,30.5,27.90,ENE,68,0.0,1.1,76,0.00,,---,0.00,VWS V14.01,2013-03-19 09:26:00,
2013-03-19 05:31:00,37.2,30.4,27.90,East,90,0.0,1.1,76,0.00,,---,0.00,VWS V14.01,2013-03-19 09:31:00,
2013-03-19 05:36:00,37.0,30.2,27.90,East,90,1.1,2.5,76,0.00,,---,0.00,VWS V14.01,2013-03-19 09:36:00,
2013-03-19 05:42:00,37.0,30.2,27.90,East,90,0.0,0.9,76,0.00,,---,0.00,VWS V14.01,2013-03-19 09:42:00,
2013-03-19 05:47:00,36.9,30.3,27.90,East,90,0.0,1.1,77,0.00,,---,0.00,VWS V14.01,2013-03-19 09:47:00,
2013-03-19 05:52:00,37.0,30.2,27.90,NE,45,0.0,2.2,76,0.00,,---,0.00,VWS V14.01,2013-03-19 09:52:00,
2013-03-19 05:57:00,36.9,30.0,27.90,SE,135,0.0,2.5,76,0.00,,---,0.00,VWS V14.01,2013-03-19 09:57:00,
2013-03-19 06:02:00,36.7,29.8,27.90,NW,315,0.0,2.0,76,0.00,,---,0.00,VWS V14.01,2013-03-19 10:02:00,
2013-03-19 06:07:00,36.7,29.8,27.90,NNE,22,0.0,0.0,76,0.00,,---,0.00,VWS V14.01,2013-03-19 10:07:00,
2013-03-19 06:12:00,36.7,29.8,27.90,SW,225,0.0,1.1,76,0.00,,---,0.00,VWS V14.01,2013-03-19 10:12:00,
2013-03-19 06:17:00,36.3,29.5,27.90,WSW,248,0.0,0.0,76,0.00,,---,0.00,VWS V14.01,2013-03-19 10:17:00,
2013-03-19 06:22:00,36.1,29.6,27.90,East,90,0.0,0.0,77,0.00,,---,0.00,VWS V14.01,2013-03-19 10:22:00,
2013-03-19 06:27:00,36.1,29.6,27.90,West,270,0.0,0.9,77,0.00,,---,0.00,VWS V14.01,2013-03-19 10:27:00,
2013-03-19 06:32:00,36.0,29.5,27.90,WSW,248,0.0,0.0,77,0.00,,---,0.00,VWS V14.01,2013-03-19 10:32:00,
2013-03-19 06:37:00,35.8,29.3,27.90,ESE,112,0.0,0.0,77,0.00,,---,0.00,VWS V14.01,2013-03-19 10:37:00,
2013-03-19 06:42:00,35.6,29.1,27.90,North,0,0.0,0.0,77,0.00,,---,0.00,VWS V14.01,2013-03-19 10:42:00,
2013-03-19 06:47:00,35.4,29.2,27.90,WSW,248,0.0,0.0,78,0.00,,---,0.00,VWS V14.01,2013-03-19 10:47:00,
2013-03-19 06:52:00,35.4,29.2,27.90,NNE,22,0.0,0.0,78,0.00,,---,0.00,VWS V14.01,2013-03-19 10:52:00,
2013-03-19 06:57:00,35.2,29.1,27.90,ENE,68,0.0,0.0,78,0.00,,---,0.00,VWS V14.01,2013-03-19 10:57:00,
2013-03-19 07:02:00,35.1,28.9,27.90,NNW,338,0.0,0.0,78,0.00,,---,0.00,VWS V14.01,2013-03-19 11:02:00,
2013-03-19 07:07:00,34.9,29.0,27.90,ENE,68,0.0,0.0,79,0.00,,---,0.00,VWS V14.01,2013-03-19 11:07:00,
2013-03-19 07:12:00,34.9,29.0,27.90,East,90,0.0,0.0,79,0.00,,---,0.00,VWS V14.01,2013-03-19 11:12:00,
2013-03-19 07:18:00,34.9,29.0,27.90,NE,45,0.0,0.0,79,0.00,,---,0.00,VWS V14.01,2013-03-19 11:18:00,
2013-03-19 07:23:00,34.9,29.4,27.90,East,90,0.0,0.9,80,0.00,,---,0.00,VWS V14.01,2013-03-19 11:23:00,
2013-03-19 07:28:00,35.1,29.5,27.90,ENE,68,0.0,0.0,80,0.00,,---,0.00,VWS V14.01,2013-03-19 11:28:00,
2013-03-19 07:33:00,35.1,29.5,27.90,ENE,68,0.0,0.0,80,0.00,,---,0.00,VWS V14.01,2013-03-19 11:33:00,
2013-03-19 07:38:00,35.1,29.5,27.90,ENE,68,0.0,0.0,80,0.00,,---,0.00,VWS V14.01,2013-03-19 11:38:00,
2013-03-19 07:43:00,35.1,29.2,27.90,ENE,68,0.0,0.9,79,0.00,,---,0.00,VWS V14.01,2013-03-19 11:43:00,
2013-03-19 07:48:00,35.1,29.2,27.90,ENE,68,0.0,0.0,79,0.00,,---,0.00,VWS V14.01,2013-03-19 11:48:00,
2013-03-19 07:53:00,35.2,29.1,27.90,NNW,338,0.0,0.0,78,0.00,,---,0.00,VWS V14.01,2013-03-19 11:53:00,
2013-03-19 07:58:00,35.4,29.2,27.90,NE,45,0.0,0.0,78,0.00,,---,0.00,VWS V14.01,2013-03-19 11:58:00,
2013-03-19 08:03:00,35.6,29.1,27.90,ENE,68,0.0,0.0,77,0.00,,---,0.00,VWS V14.01,2013-03-19 12:03:00,
2013-03-19 08:08:00,35.6,29.1,27.90,WSW,248,0.0,0.0,77,0.00,,---,0.00,VWS V14.01,2013-03-19 12:08:00,
2013-03-19 08:13:00,35.6,29.1,27.90,East,90,0.0,0.0,77,0.00,,---,0.00,VWS V14.01,2013-03-19 12:13:00,
2013-03-19 08:18:00,35.8,29.3,27.90,WSW,248,0.0,0.0,77,0.00,,---,0.00,VWS V14.01,2013-03-19 12:18:00,
2013-03-19 08:23:00,36.1,29.6,27.90,SSE,158,0.0,0.0,77,0.00,,---,0.00,VWS V14.01,2013-03-19 12:23:00,
2013-03-19 08:28:00,36.3,29.5,27.90,SE,135,0.0,0.0,76,0.00,,---,0.00,VWS V14.01,2013-03-19 12:28:00,
2013-03-19 08:33:00,37.0,29.9,27.90,SSW,202,0.0,0.0,75,0.00,,---,0.00,VWS V14.01,2013-03-19 12:33:00,
2013-03-19 08:38:00,37.2,30.0,27.90,NNW,338,0.0,0.0,75,0.00,,---,0.00,VWS V14.01,2013-03-19 12:38:00,
2013-03-19 08:43:00,37.6,30.1,27.90,SSE,158,0.0,0.0,74,0.00,,---,0.00,VWS V14.01,2013-03-19 12:43:00,
2013-03-19 08:49:00,37.9,30.4,27.90,SSW,202,0.0,0.0,74,0.00,,---,0.00,VWS V14.01,2013-03-19 12:49:00,
2013-03-19 08:54:00,38.3,30.8,27.90,NW,315,0.0,0.0,74,0.00,,---,0.00,VWS V14.01,2013-03-19 12:54:00,
2013-03-19 08:59:00,38.8,31.3,27.90,WSW,248,0.0,0.0,74,0.00,,---,0.00,VWS V14.01,2013-03-19 12:59:00,
2013-03-19 09:04:00,39.7,31.5,27.90,WSW,248,0.0,0.0,72,0.00,,---,0.00,VWS V14.01,2013-03-19 13:04:00,
2013-03-19 09:09:00,40.1,31.5,27.93,WNW,292,0.0,0.0,71,0.00,,---,0.00,VWS V14.01,2013-03-19 13:09:00,
2013-03-19 09:14:00,40.3,31.6,27.93,NE,45,0.0,0.0,71,0.00,,---,0.00,VWS V14.01,2013-03-19 13:14:00,
2013-03-19 09:19:00,41.0,31.6,27.93,ENE,68,0.0,0.0,69,0.00,,---,0.00,VWS V14.01,2013-03-19 13:19:00,
2013-03-19 09:24:00,41.2,32.2,27.93,NE,45,0.9,0.9,70,0.00,,---,0.00,VWS V14.01,2013-03-19 13:24:00,
2013-03-19 09:29:00,41.5,32.1,27.93,North,0,0.0,0.0,69,0.00,,---,0.00,VWS V14.01,2013-03-19 13:29:00,
2013-03-19 09:34:00,42.3,32.5,27.93,East,90,0.0,0.0,68,0.00,,---,0.00,VWS V14.01,2013-03-19 13:34:00,
2013-03-19 09:39:00,43.0,32.0,27.93,SSE,158,0.0,0.0,65,0.00,,---,0.00,VWS V14.01,2013-03-19 13:39:00,
2013-03-19 09:44:00,43.7,32.3,27.93,ENE,68,0.0,0.0,64,0.00,,---,0.00,VWS V14.01,2013-03-19 13:44:00,
2013-03-19 09:49:00,44.1,29.8,27.93,NNE,22,1.3,1.3,57,0.00,,---,0.00,VWS V14.01,2013-03-19 13:49:00,
2013-03-19 09:55:00,44.6,30.3,27.93,NNE,22,1.3,1.6,57,0.00,,---,0.00,VWS V14.01,2013-03-19 13:55:00,
2013-03-19 10:00:00,45.1,30.4,27.93,South,180,0.0,3.1,56,0.00,,---,0.00,VWS V14.01,2013-03-19 14:00:00,
2013-03-19 10:05:00,46.0,31.2,27.93,NNE,22,0.0,1.1,56,0.00,,---,0.00,VWS V14.01,2013-03-19 14:05:00,
2013-03-19 10:10:00,46.6,30.4,27.96,East,90,1.6,2.0,53,0.00,,---,0.00,VWS V14.01,2013-03-19 14:10:00,
2013-03-19 10:15:00,46.2,29.6,27.96,NE,45,3.6,3.6,52,0.00,,---,0.00,VWS V14.01,2013-03-19 14:15:00,
2013-03-19 10:20:00,46.2,29.1,27.96,ENE,68,0.9,2.5,51,0.00,,---,0.00,VWS V14.01,2013-03-19 14:20:00,
2013-03-19 10:25:00,46.4,28.8,27.96,East,90,1.3,2.9,50,0.00,,---,0.00,VWS V14.01,2013-03-19 14:25:00,
2013-03-19 10:30:00,46.9,29.8,27.96,South,180,0.0,0.0,51,0.00,,---,0.00,VWS V14.01,2013-03-19 14:30:00,
2013-03-19 10:35:00,47.7,30.0,27.96,ESE,112,2.7,2.7,50,0.00,,---,0.00,VWS V14.01,2013-03-19 14:35:00,
2013-03-19 10:40:00,48.0,29.8,27.96,SE,135,2.0,2.0,49,0.00,,---,0.00,VWS V14.01,2013-03-19 14:40:00,
2013-03-19 10:45:00,48.7,30.5,27.96,ESE,112,1.6,2.0,49,0.00,,---,0.00,VWS V14.01,2013-03-19 14:45:00,
2013-03-19 10:50:00,49.1,30.3,27.96,ESE,112,2.5,3.6,48,0.00,,---,0.00,VWS V14.01,2013-03-19 14:50:00,
2013-03-19 10:55:00,49.3,30.4,27.96,ENE,68,1.1,2.2,48,0.00,,---,0.00,VWS V14.01,2013-03-19 14:55:00,
2013-03-19 11:01:00,49.6,30.2,27.96,East,90,1.3,1.3,47,0.00,,---,0.00,VWS V14.01,2013-03-19 15:01:00,
2013-03-19 11:06:00,50.0,30.6,27.96,NE,45,2.2,2.2,47,0.00,,---,0.00,VWS V14.01,2013-03-19 15:06:00,
2013-03-19 11:11:00,50.7,31.2,27.96,SSW,202,2.2,3.6,47,0.00,,---,0.00,VWS V14.01,2013-03-19 15:11:00,
2013-03-19 11:16:00,50.4,30.4,27.96,SSW,202,2.9,3.6,46,0.00,,---,0.00,VWS V14.01,2013-03-19 15:16:00,
2013-03-19 11:21:00,50.7,30.7,27.96,South,180,2.7,3.6,46,0.00,,---,0.00,VWS V14.01,2013-03-19 15:21:00,
2013-03-19 11:26:00,51.1,31.6,27.96,North,0,3.6,3.6,47,0.00,,---,0.00,VWS V14.01,2013-03-19 15:26:00,
2013-03-19 11:31:00,51.6,31.5,27.96,South,180,4.0,4.0,46,0.00,,---,0.00,VWS V14.01,2013-03-19 15:31:00,
2013-03-19 11:36:00,52.2,32.0,27.96,SSW,202,2.5,3.8,46,0.00,,---,0.00,VWS V14.01,2013-03-19 15:36:00,
2013-03-19 11:41:00,54.0,33.7,27.96,SSE,158,1.6,1.6,46,0.00,,---,0.00,VWS V14.01,2013-03-19 15:41:00,
2013-03-19 11:46:00,53.6,32.2,27.96,WNW,292,1.1,4.0,44,0.00,,---,0.00,VWS V14.01,2013-03-19 15:46:00,
2013-03-19 11:51:00,53.6,0.0,27.96,WSW,248,3.8,4.0,100,0.00,,---,0.00,VWS V14.01,2013-03-19 15:51:00,
2013-03-19 11:57:00,54.0,31.4,27.96,NE,45,0.0,2.7,42,0.00,,---,0.00,VWS V14.01,2013-03-19 15:57:00,
2013-03-19 12:02:00,55.4,33.3,27.96,ENE,68,1.6,1.6,43,0.00,,---,0.00,VWS V14.01,2013-03-19 16:02:00,
2013-03-19 12:07:00,56.7,33.8,27.96,East,90,0.9,2.0,42,0.00,,---,0.00,VWS V14.01,2013-03-19 16:07:00,
2013-03-19 12:12:00,57.6,34.1,27.96,WNW,292,1.3,1.3,41,0.00,,---,0.00,VWS V14.01,2013-03-19 16:12:00,
2013-03-19 12:17:00,57.7,33.0,27.96,ESE,112,1.6,3.6,39,0.00,,---,0.00,VWS V14.01,2013-03-19 16:17:00,
2013-03-19 12:22:00,57.6,31.5,27.96,East,90,2.5,4.0,37,0.00,,---,0.00,VWS V14.01,2013-03-19 16:22:00,
2013-03-19 12:27:00,57.2,31.2,27.96,East,90,0.9,2.0,37,0.00,,---,0.00,VWS V14.01,2013-03-19 16:27:00,
2013-03-19 12:32:00,57.6,31.5,27.96,East,90,1.3,2.0,37,0.00,,---,0.00,VWS V14.01,2013-03-19 16:32:00,
2013-03-19 12:37:00,57.4,31.3,27.96,ENE,68,3.4,3.4,37,0.00,,---,0.00,VWS V14.01,2013-03-19 16:37:00,
2013-03-19 12:42:00,57.6,30.1,27.96,SSW,202,1.6,1.6,35,0.00,,---,0.00,VWS V14.01,2013-03-19 16:42:00,
2013-03-19 12:47:00,57.9,31.1,27.96,NE,45,1.1,2.2,36,0.00,,---,0.00,VWS V14.01,2013-03-19 16:47:00,
2013-03-19 12:52:00,57.9,31.1,27.96,NNE,22,2.0,2.0,36,0.00,,---,0.00,VWS V14.01,2013-03-19 16:52:00,
2013-03-19 12:57:00,57.9,30.5,27.96,ESE,112,2.9,2.9,35,0.00,,---,0.00,VWS V14.01,2013-03-19 16:57:00,
2013-03-19 13:02:00,58.5,31.6,27.96,SSE,158,0.0,1.1,36,0.00,,---,0.00,VWS V14.01,2013-03-19 17:02:00,
2013-03-19 13:07:00,58.5,30.9,27.96,NE,45,1.6,2.5,35,0.00,,---,0.00,VWS V14.01,2013-03-19 17:07:00,
2013-03-19 13:12:00,58.1,30.6,27.96,SE,135,1.6,2.9,35,0.00,,---,0.00,VWS V14.01,2013-03-19 17:12:00,
2013-03-19 13:18:00,59.7,32.0,27.96,NE,45,1.3,1.3,35,0.00,,---,0.00,VWS V14.01,2013-03-19 17:18:00,
2013-03-19 13:23:00,59.2,30.9,27.96,West,270,2.9,2.9,34,0.00,,---,0.00,VWS V14.01,2013-03-19 17:23:00,
2013-03-19 13:28:00,59.5,31.2,27.96,West,270,2.2,2.2,34,0.00,,---,0.00,VWS V14.01,2013-03-19 17:28:00,
2013-03-19 13:33:00,59.7,31.3,27.96,SE,135,2.5,3.1,34,0.00,,---,0.00,VWS V14.01,2013-03-19 17:33:00,
2013-03-19 13:38:00,60.1,30.1,27.96,North,0,1.3,1.3,32,0.00,,---,0.00,VWS V14.01,2013-03-19 17:38:00,
2013-03-19 13:43:00,60.6,29.0,27.96,SSE,158,0.0,2.0,30,0.00,,---,0.00,VWS V14.01,2013-03-19 17:43:00,
2013-03-19 13:48:00,61.3,32.0,27.96,SE,135,1.1,1.6,33,0.00,,---,0.00,VWS V14.01,2013-03-19 17:48:00,
2013-03-19 13:53:00,61.7,29.1,27.99,WSW,248,1.6,3.4,29,0.00,,---,0.00,VWS V14.01,2013-03-19 17:53:00,
2013-03-19 13:58:00,61.9,29.3,27.99,North,0,4.3,4.3,29,0.00,,---,0.00,VWS V14.01,2013-03-19 17:58:00,
2013-03-19 14:03:00,61.7,29.1,27.99,SE,135,1.3,2.7,29,0.00,,---,0.00,VWS V14.01,2013-03-19 18:03:00,
2013-03-19 14:08:00,61.9,28.4,27.99,ESE,112,1.3,2.9,28,0.00,,---,0.00,VWS V14.01,2013-03-19 18:08:00,
2013-03-19 14:13:00,62.1,28.6,27.99,SW,225,2.2,2.5,28,0.00,,---,0.00,VWS V14.01,2013-03-19 18:13:00,
2013-03-19 14:18:00,62.4,29.8,27.99,ENE,68,1.3,2.9,29,0.00,,---,0.00,VWS V14.01,2013-03-19 18:18:00,
2013-03-19 14:23:00,62.4,29.8,27.99,SW,225,2.0,2.5,29,0.00,,---,0.00,VWS V14.01,2013-03-19 18:23:00,
2013-03-19 14:28:00,61.9,27.6,27.99,SSE,158,4.9,4.9,27,0.00,,---,0.00,VWS V14.01,2013-03-19 18:28:00,
2013-03-19 14:33:00,62.6,29.9,27.99,North,0,0.9,0.9,29,0.00,,---,0.00,VWS V14.01,2013-03-19 18:33:00,
2013-03-19 14:38:00,62.4,28.9,27.96,ENE,68,1.1,2.5,28,0.00,,---,0.00,VWS V14.01,2013-03-19 18:38:00,
2013-03-19 14:43:00,61.9,26.6,27.96,SSE,158,3.8,3.8,26,0.00,,---,0.00,VWS V14.01,2013-03-19 18:43:00,
2013-03-19 14:48:00,62.1,26.8,27.96,SW,225,3.8,4.3,26,0.00,,---,0.00,VWS V14.01,2013-03-19 18:48:00,
2013-03-19 14:54:00,62.8,28.3,27.96,East,90,2.0,2.9,27,0.00,,---,0.00,VWS V14.01,2013-03-19 18:54:00,
2013-03-19 14:59:00,63.0,26.6,27.96,WSW,248,3.6,3.6,25,0.00,,---,0.00,VWS V14.01,2013-03-19 18:59:00,
2013-03-19 15:04:00,62.8,26.5,27.96,South,180,2.5,3.4,25,0.00,,---,0.00,VWS V14.01,2013-03-19 19:04:00,
2013-03-19 15:09:00,62.4,27.1,27.96,East,90,3.1,3.1,26,0.00,,---,0.00,VWS V14.01,2013-03-19 19:09:00,
2013-03-19 15:14:00,61.7,25.5,27.96,ENE,68,2.2,2.7,25,0.00,,---,0.00,VWS V14.01,2013-03-19 19:14:00,
2013-03-19 15:19:00,62.2,27.0,27.96,ESE,112,2.7,3.8,26,0.00,,---,0.00,VWS V14.01,2013-03-19 19:19:00,
2013-03-19 15:24:00,61.9,25.7,27.96,NE,45,2.2,2.9,25,0.00,,---,0.00,VWS V14.01,2013-03-19 19:24:00,
2013-03-19 15:29:00,62.4,26.2,27.96,NE,45,2.7,4.3,25,0.00,,---,0.00,VWS V14.01,2013-03-19 19:29:00,
2013-03-19 15:34:00,61.5,24.4,27.96,East,90,3.8,3.8,24,0.00,,---,0.00,VWS V14.01,2013-03-19 19:34:00,
2013-03-19 15:39:00,61.9,24.7,27.96,NNE,22,4.0,4.0,24,0.00,,---,0.00,VWS V14.01,2013-03-19 19:39:00,
2013-03-19 15:44:00,61.7,21.4,27.96,East,90,4.3,4.7,21,0.00,,---,0.00,VWS V14.01,2013-03-19 19:44:00,
2013-03-19 15:49:00,61.3,18.8,27.96,SE,135,0.9,5.8,19,0.00,,---,0.00,VWS V14.01,2013-03-19 19:49:00,
2013-03-19 15:54:00,61.5,24.4,27.96,East,90,1.3,3.4,24,0.00,,---,0.00,VWS V14.01,2013-03-19 19:54:00,
2013-03-19 15:59:00,62.4,26.2,27.96,SSW,202,4.0,4.0,25,0.00,,---,0.00,VWS V14.01,2013-03-19 19:59:00,
2013-03-19 16:04:00,61.9,15.2,27.96,WSW,248,6.3,6.3,16,0.00,,---,0.00,VWS V14.01,2013-03-19 20:04:00,
2013-03-19 16:09:00,61.9,19.2,27.99,North,0,2.2,2.2,19,0.00,,---,0.00,VWS V14.01,2013-03-19 20:09:00,
2013-03-19 16:14:00,62.4,25.2,27.99,ESE,112,1.3,3.6,24,0.00,,---,0.00,VWS V14.01,2013-03-19 20:14:00,
2013-03-19 16:19:00,62.2,15.5,27.99,NW,315,2.0,2.0,16,0.00,,---,0.00,VWS V14.01,2013-03-19 20:19:00,
2013-03-19 16:24:00,61.9,15.2,27.99,East,90,3.4,5.6,16,0.00,,---,0.00,VWS V14.01,2013-03-19 20:24:00,
2013-03-19 16:29:00,61.3,14.8,27.99,NNW,338,0.9,1.1,16,0.00,,---,0.00,VWS V14.01,2013-03-19 20:29:00,
2013-03-19 16:34:00,61.5,24.4,27.99,South,180,1.6,1.6,24,0.00,,---,0.00,VWS V14.01,2013-03-19 20:34:00,
2013-03-19 16:40:00,61.5,24.4,27.99,East,90,0.0,0.0,24,0.00,,---,0.00,VWS V14.01,2013-03-19 20:40:00,
2013-03-19 16:45:00,63.1,25.8,27.99,ENE,68,0.9,0.9,24,0.00,,---,0.00,VWS V14.01,2013-03-19 20:45:00,
2013-03-19 16:50:00,61.9,19.2,27.99,SE,135,1.3,2.5,19,0.00,,---,0.00,VWS V14.01,2013-03-19 20:50:00,
2013-03-19 16:55:00,61.9,21.5,27.99,WSW,248,2.9,2.9,21,0.00,,---,0.00,VWS V14.01,2013-03-19 20:55:00,
2013-03-19 17:00:00,62.2,21.9,27.99,East,90,2.0,3.1,21,0.00,,---,0.00,VWS V14.01,2013-03-19 21:00:00,
2013-03-19 17:05:00,62.2,15.5,27.99,East,90,0.9,1.6,16,0.00,,---,0.00,VWS V14.01,2013-03-19 21:05:00,
2013-03-19 17:10:00,61.9,6.8,27.99,NNW,338,2.7,4.0,11,0.00,,---,0.00,VWS V14.01,2013-03-19 21:10:00,
2013-03-19 17:15:00,60.8,6.0,27.99,WSW,248,4.3,4.3,11,0.00,,---,0.00,VWS V14.01,2013-03-19 21:15:00,
2013-03-19 17:20:00,60.8,20.6,27.99,SE,135,2.0,2.7,21,0.00,,---,0.00,VWS V14.01,2013-03-19 21:20:00,
2013-03-19 17:25:00,60.3,7.5,27.99,NE,45,2.9,3.4,12,0.00,,---,0.00,VWS V14.01,2013-03-19 21:25:00,
2013-03-19 17:30:00,59.9,0.9,27.99,SSW,202,2.0,2.7,9,0.00,,---,0.00,VWS V14.01,2013-03-19 21:30:00,
2013-03-19 17:35:00,59.0,6.5,27.99,NNE,22,1.3,1.3,12,0.00,,---,0.00,VWS V14.01,2013-03-19 21:35:00,
2013-03-19 17:40:00,58.8,0.1,27.99,East,90,2.7,2.7,9,0.00,,---,0.00,VWS V14.01,2013-03-19 21:40:00,
2013-03-19 17:45:00,58.5,-0.2,27.99,SSW,202,2.9,2.9,9,0.00,,---,0.00,VWS V14.01,2013-03-19 21:45:00,
2013-03-19 17:50:00,57.4,-1.0,27.99,ENE,68,2.5,3.1,9,0.00,,---,0.00,VWS V14.01,2013-03-19 21:50:00,
2013-03-19 17:55:00,57.7,-0.7,27.99,NNE,22,0.9,1.3,9,0.00,,---,0.00,VWS V14.01,2013-03-19 21:55:00,
2013-03-19 18:01:00,56.8,4.8,27.99,NE,45,3.1,3.1,12,0.00,,---,0.00,VWS V14.01,2013-03-19 22:01:00,
2013-03-19 18:05:00,55.6,8.7,27.99,NNE,22,3.4,3.4,15,0.00,,---,0.00,VWS V14.01,2013-03-19 22:05:00,
2013-03-19 18:11:00,54.9,-8.1,27.99,SSW,202,3.1,3.1,7,0.00,,---,0.00,VWS V14.01,2013-03-19 22:11:00,
2013-03-19 18:16:00,54.1,-5.9,27.99,East,90,2.2,2.2,8,0.00,,---,0.00,VWS V14.01,2013-03-19 22:16:00,
2013-03-19 18:21:00,54.0,-1.4,27.99,ENE,68,0.0,1.3,10,0.00,,---,0.00,VWS V14.01,2013-03-19 22:21:00,
2013-03-19 18:26:00,54.1,-5.9,27.99,SSW,202,1.1,3.4,8,0.00,,---,0.00,VWS V14.01,2013-03-19 22:26:00,
2013-03-19 18:31:00,54.5,-5.6,27.99,East,90,1.6,1.6,8,0.00,,---,0.00,VWS V14.01,2013-03-19 22:31:00,
2013-03-19 18:36:00,54.7,-5.5,27.99,West,270,2.0,2.0,8,0.00,,---,0.00,VWS V14.01,2013-03-19 22:36:00,
2013-03-19 18:41:00,54.1,-5.9,27.99,NW,315,1.3,1.3,8,0.00,,---,0.00,VWS V14.01,2013-03-19 22:41:00,
2013-03-19 18:46:00,52.9,-9.6,27.99,SSW,202,0.9,0.9,7,0.00,,---,0.00,VWS V14.01,2013-03-19 22:46:00,
2013-03-19 18:51:00,52.0,-7.5,27.99,WSW,248,2.7,2.7,8,0.00,,---,0.00,VWS V14.01,2013-03-19 22:51:00,
2013-03-19 18:56:00,51.8,-7.7,27.99,NNE,22,0.0,1.6,8,0.00,,---,0.00,VWS V14.01,2013-03-19 22:56:00,
2013-03-19 19:02:00,51.4,-7.9,27.99,East,90,0.9,2.5,8,0.00,,---,0.00,VWS V14.01,2013-03-19 23:02:00,
2013-03-19 19:07:00,50.7,-8.5,27.99,East,90,0.0,1.6,8,0.00,,---,0.00,VWS V14.01,2013-03-19 23:07:00,
2013-03-19 19:12:00,50.4,-8.7,27.99,SE,135,1.1,2.0,8,0.00,,---,0.00,VWS V14.01,2013-03-19 23:12:00,
2013-03-19 19:17:00,50.0,-9.0,27.99,ESE,112,1.3,2.5,8,0.00,,---,0.00,VWS V14.01,2013-03-19 23:17:00,
2013-03-19 19:22:00,49.5,-9.4,28.02,ENE,68,0.0,0.0,8,0.00,,---,0.00,VWS V14.01,2013-03-19 23:22:00,
2013-03-19 19:27:00,48.9,-9.8,28.02,WSW,248,0.0,0.9,8,0.00,,---,0.00,VWS V14.01,2013-03-19 23:27:00,
2013-03-19 19:32:00,48.9,-9.8,28.02,NE,45,1.3,1.3,8,0.00,,---,0.00,VWS V14.01,2013-03-19 23:32:00,
2013-03-19 19:37:00,48.9,-9.8,28.02,ESE,112,0.0,0.9,8,0.00,,---,0.00,VWS V14.01,2013-03-19 23:37:00,
2013-03-19 19:42:00,47.8,-8.3,28.02,East,90,0.0,0.9,9,0.00,,---,0.00,VWS V14.01,2013-03-19 23:42:00,
2013-03-19 19:48:00,47.7,-8.4,28.02,SE,135,0.0,0.0,9,0.00,,---,0.00,VWS V14.01,2013-03-19 23:48:00,
2013-03-19 19:53:00,47.3,-8.7,27.99,ENE,68,0.0,0.0,9,0.00,,---,0.00,VWS V14.01,2013-03-19 23:53:00,
2013-03-19 19:58:00,46.9,-3.0,27.99,NNE,22,0.0,0.9,12,0.00,,---,0.00,VWS V14.01,2013-03-19 23:58:00,
2013-03-19 20:03:00,46.6,-0.1,27.99,ENE,68,0.0,0.0,14,0.00,,---,0.00,VWS V14.01,2013-03-20 00:03:00,
2013-03-19 20:08:00,46.2,-3.6,27.99,ESE,112,0.9,0.9,12,0.00,,---,0.00,VWS V14.01,2013-03-20 00:08:00,
2013-03-19 20:13:00,46.0,1.0,27.99,SE,135,0.0,0.0,15,0.00,,---,0.00,VWS V14.01,2013-03-20 00:13:00,
2013-03-19 20:18:00,45.7,-4.0,27.99,East,90,0.0,1.1,12,0.00,,---,0.00,VWS V14.01,2013-03-20 00:18:00,
2013-03-19 20:23:00,45.5,0.6,27.99,WSW,248,1.6,1.6,15,0.00,,---,0.00,VWS V14.01,2013-03-20 00:23:00,
2013-03-19 20:28:00,45.3,0.4,27.99,WSW,248,0.0,0.0,15,0.00,,---,0.00,VWS V14.01,2013-03-20 00:28:00,
2013-03-19 20:33:00,45.0,0.1,27.99,ENE,68,0.0,0.0,15,0.00,,---,0.00,VWS V14.01,2013-03-20 00:33:00,
2013-03-19 20:38:00,44.8,0.0,27.99,NNW,338,0.9,0.9,15,0.00,,---,0.00,VWS V14.01,2013-03-20 00:38:00,
2013-03-19 20:43:00,44.4,3.6,27.99,NE,45,0.0,0.0,18,0.00,,---,0.00,VWS V14.01,2013-03-20 00:43:00,
2013-03-19 20:48:00,44.2,3.4,27.99,ENE,68,0.0,1.1,18,0.00,,---,0.00,VWS V14.01,2013-03-20 00:48:00,
2013-03-19 20:53:00,44.1,3.3,27.99,SW,225,0.0,1.1,18,0.00,,---,0.00,VWS V14.01,2013-03-20 00:53:00,
2013-03-19 20:58:00,43.7,3.0,27.99,NNE,22,0.9,0.9,18,0.00,,---,0.00,VWS V14.01,2013-03-20 00:58:00,
2013-03-19 21:03:00,43.5,5.1,27.99,ENE,68,0.0,0.0,20,0.00,,---,0.00,VWS V14.01,2013-03-20 01:03:00,
2013-03-19 21:09:00,43.2,9.7,27.99,SE,135,0.0,0.0,25,0.00,,---,0.00,VWS V14.01,2013-03-20 01:09:00,
2013-03-19 21:14:00,43.0,12.1,27.99,NE,45,0.0,0.0,28,0.00,,---,0.00,VWS V14.01,2013-03-20 01:14:00,
2013-03-19 21:19:00,42.8,12.0,27.99,ENE,68,0.0,2.0,28,0.00,,---,0.00,VWS V14.01,2013-03-20 01:19:00,
2013-03-19 21:24:00,42.6,12.6,27.99,ENE,68,0.0,0.0,29,0.00,,---,0.00,VWS V14.01,2013-03-20 01:24:00,
2013-03-19 21:29:00,42.3,12.3,27.99,ESE,112,0.0,0.0,29,0.00,,---,0.00,VWS V14.01,2013-03-20 01:29:00,
2013-03-19 21:34:00,42.1,12.9,27.99,NNE,22,0.0,0.0,30,0.00,,---,0.00,VWS V14.01,2013-03-20 01:34:00,
2013-03-19 21:39:00,41.7,12.6,27.99,East,90,0.0,0.0,30,0.00,,---,0.00,VWS V14.01,2013-03-20 01:39:00,
2013-03-19 21:44:00,41.7,12.6,27.99,East,90,0.0,0.0,30,0.00,,---,0.00,VWS V14.01,2013-03-20 01:44:00,
2013-03-19 21:49:00,41.5,13.2,27.99,East,90,0.0,0.0,31,0.00,,---,0.00,VWS V14.01,2013-03-20 01:49:00,
2013-03-19 21:54:00,41.5,13.2,27.99,NNE,22,0.0,0.0,31,0.00,,---,0.00,VWS V14.01,2013-03-20 01:54:00,
2013-03-19 21:59:00,41.7,14.1,27.99,ESE,112,0.0,0.0,32,0.00,,---,0.00,VWS V14.01,2013-03-20 01:59:00,
2013-03-19 22:04:00,41.7,14.1,27.99,ENE,68,0.0,0.0,32,0.00,,---,0.00,VWS V14.01,2013-03-20 02:04:00,
2013-03-19 22:09:00,41.7,14.1,27.99,East,90,0.0,0.0,32,0.00,,---,0.00,VWS V14.01,2013-03-20 02:09:00,
2013-03-19 22:14:00,41.7,14.1,27.99,East,90,0.0,0.0,32,0.00,,---,0.00,VWS V14.01,2013-03-20 02:14:00,
2013-03-19 22:19:00,41.7,13.3,27.99,ENE,68,0.0,0.0,31,0.00,,---,0.00,VWS V14.01,2013-03-20 02:19:00,
2013-03-19 22:24:00,41.9,13.5,27.99,NNW,338,0.0,0.0,31,0.00,,---,0.00,VWS V14.01,2013-03-20 02:24:00,
2013-03-19 22:30:00,41.7,13.3,27.99,ESE,112,0.9,0.9,31,0.00,,---,0.00,VWS V14.01,2013-03-20 02:30:00,
2013-03-19 22:35:00,41.7,13.3,27.99,WNW,292,0.9,0.9,31,0.00,,---,0.00,VWS V14.01,2013-03-20 02:35:00,
2013-03-19 22:40:00,41.7,12.6,27.99,ENE,68,1.6,2.5,30,0.00,,---,0.00,VWS V14.01,2013-03-20 02:40:00,
2013-03-19 22:45:00,41.7,12.6,27.99,NNE,22,0.9,1.6,30,0.00,,---,0.00,VWS V14.01,2013-03-20 02:45:00,
2013-03-19 22:50:00,41.7,12.6,27.99,WNW,292,1.3,1.6,30,0.00,,---,0.00,VWS V14.01,2013-03-20 02:50:00,
2013-03-19 22:55:00,41.7,11.8,27.99,North,0,2.5,2.5,29,0.00,,---,0.00,VWS V14.01,2013-03-20 02:55:00,
2013-03-19 23:00:00,41.7,11.8,27.99,ENE,68,0.0,0.0,29,0.00,,---,0.00,VWS V14.01,2013-03-20 03:00:00,
2013-03-19 23:05:00,41.7,11.8,27.99,SSE,158,0.0,2.0,29,0.00,,---,0.00,VWS V14.01,2013-03-20 03:05:00,
2013-03-19 23:10:00,41.5,11.7,27.99,ESE,112,2.2,2.2,29,0.00,,---,0.00,VWS V14.01,2013-03-20 03:10:00,
2013-03-19 23:15:00,41.5,10.9,27.99,NNW,338,0.0,2.5,28,0.00,,---,0.00,VWS V14.01,2013-03-20 03:15:00,
2013-03-19 23:20:00,41.4,11.5,27.99,NE,45,0.0,0.0,29,0.00,,---,0.00,VWS V14.01,2013-03-20 03:20:00,
2013-03-19 23:25:00,41.4,10.7,27.99,SE,135,0.9,0.9,28,0.00,,---,0.00,VWS V14.01,2013-03-20 03:25:00,
2013-03-19 23:30:00,41.4,10.7,27.99,NW,315,0.0,1.6,28,0.00,,---,0.00,VWS V14.01,2013-03-20 03:30:00,
2013-03-19 23:35:00,41.4,11.5,27.99,SSE,158,0.0,0.0,29,0.00,,---,0.00,VWS V14.01,2013-03-20 03:35:00,
2013-03-19 23:40:00,41.4,11.5,27.99,SE,135,0.0,0.0,29,0.00,,---,0.00,VWS V14.01,2013-03-20 03:40:00,
2013-03-19 23:45:00,41.2,10.6,27.99,WNW,292,1.3,1.3,28,0.00,,---,0.00,VWS V14.01,2013-03-20 03:45:00,
2013-03-19 23:50:00,41.2,10.6,27.99,NE,45,1.3,1.3,28,0.00,,---,0.00,VWS V14.01,2013-03-20 03:50:00,
2013-03-19 23:55:00,41.2,10.6,27.99,East,90,0.0,1.1,28,0.00,,---,0.00,VWS V14.01,2013-03-20 03:55:00,